createdAt,value
2023-07-28T00:00:38.461Z,100189.34
2023-07-28T00:03:06.761Z,100190.84
2023-07-28T00:05:37.897Z,100186.50
2023-07-28T00:08:06.209Z,100194.13
2023-07-28T00:10:34.205Z,100189.34
2023-07-28T00:13:03.563Z,100192.34
2023-07-28T00:15:31.558Z,100190.84
2023-07-28T00:18:00.960Z,100185.88
2023-07-28T00:20:29.032Z,100184.59
2023-07-28T00:22:58.377Z,100174.50
2023-07-28T00:25:26.566Z,100174.19
2023-07-28T00:27:54.607Z,100174.28
2023-07-28T00:30:22.886Z,100181.59
2023-07-28T00:32:51.330Z,100180.47
2023-07-28T00:35:19.453Z,100185.41
2023-07-28T00:37:47.352Z,100178.28
2023-07-28T00:40:16.632Z,100177.84
2023-07-28T00:42:44.698Z,100178.78
2023-07-28T00:45:12.731Z,100176.66
2023-07-28T00:47:40.690Z,100167.00
2023-07-28T00:50:10.955Z,100173.59
2023-07-28T00:52:39.638Z,100176.44
2023-07-28T00:55:08.968Z,100166.13
2023-07-28T00:57:40.409Z,100161.94
2023-07-28T01:00:09.696Z,100164.94
2023-07-28T01:02:38.423Z,100164.06
2023-07-28T01:05:07.501Z,100163.97
2023-07-28T01:07:42.425Z,100164.06
2023-07-28T01:10:14.042Z,100159.53
2023-07-28T01:12:43.340Z,100160.38
2023-07-28T01:15:12.014Z,100160.88
2023-07-28T01:17:40.122Z,100158.50
2023-07-28T01:20:09.309Z,100160.75
2023-07-28T01:22:50.900Z,100163.59
2023-07-28T01:25:28.636Z,100159.69
2023-07-28T01:27:59.214Z,100154.75
2023-07-28T01:30:28.207Z,100161.19
2023-07-28T01:32:56.849Z,100163.69
2023-07-28T01:35:25.228Z,100150.00
2023-07-28T01:37:53.287Z,100151.91
2023-07-28T01:40:21.928Z,100143.00
2023-07-28T01:42:49.961Z,100145.28
2023-07-28T01:45:19.496Z,100148.75
2023-07-28T01:47:48.446Z,100151.38
2023-07-28T01:50:16.582Z,100154.59
2023-07-28T01:52:44.559Z,100148.38
2023-07-28T01:55:12.541Z,100153.94
2023-07-28T01:57:41.664Z,100148.66
2023-07-28T02:00:10.602Z,100151.41
2023-07-28T02:02:52.502Z,100151.31
2023-07-28T02:05:21.119Z,100160.06
2023-07-28T02:07:49.101Z,100150.16
2023-07-28T02:10:17.653Z,100146.25
2023-07-28T02:12:45.584Z,100150.50
2023-07-28T02:15:14.081Z,100134.84
2023-07-28T02:17:43.407Z,100152.38
2023-07-28T02:20:14.022Z,100156.31
2023-07-28T02:22:42.119Z,100154.63
2023-07-28T02:25:10.660Z,100156.16
2023-07-28T02:27:38.890Z,100147.19
2023-07-28T02:30:08.622Z,100160.69
2023-07-28T02:32:36.796Z,100151.50
2023-07-28T02:35:07.118Z,100156.16
2023-07-28T02:37:35.078Z,100148.28
2023-07-28T02:40:03.051Z,100148.28
2023-07-28T02:42:31.644Z,100145.25
2023-07-28T02:44:59.638Z,100139.81
2023-07-28T02:47:27.723Z,100138.75
2023-07-28T02:49:55.937Z,100145.69
2023-07-28T02:52:25.324Z,100146.44
2023-07-28T02:54:53.368Z,100147.28
2023-07-28T02:57:21.358Z,100139.00
2023-07-28T02:59:49.367Z,100141.47
2023-07-28T03:02:17.303Z,100147.03
2023-07-28T03:04:45.274Z,100144.78
2023-07-28T03:07:13.206Z,100127.03
2023-07-28T03:09:42.458Z,100140.75
2023-07-28T03:12:10.988Z,100143.97
2023-07-28T03:14:38.869Z,100138.66
2023-07-28T03:17:07.035Z,100139.53
2023-07-28T03:19:35.060Z,100142.25
2023-07-28T03:22:03.036Z,100137.66
2023-07-28T03:24:30.999Z,100135.59
2023-07-28T03:27:00.316Z,100142.75
2023-07-28T03:29:28.201Z,100136.31
2023-07-28T03:31:56.170Z,100129.28
2023-07-28T03:34:24.133Z,100114.75
2023-07-28T03:36:52.097Z,100112.34
2023-07-28T03:39:20.000Z,100119.03
2023-07-28T03:41:48.172Z,100123.06
2023-07-28T03:44:17.559Z,100132.50
2023-07-28T03:46:45.573Z,100136.81
2023-07-28T03:49:13.562Z,100127.50
2023-07-28T03:51:41.464Z,100121.34
2023-07-28T03:54:09.475Z,100130.00
2023-07-28T03:56:37.718Z,100128.53
2023-07-28T03:59:06.712Z,100137.22
2023-07-28T04:01:36.038Z,100130.03
2023-07-28T04:04:07.322Z,100134.81
2023-07-28T04:06:44.055Z,100131.84
2023-07-28T04:09:13.817Z,100138.22
2023-07-28T04:11:41.803Z,100153.50
2023-07-28T04:14:09.771Z,100146.00
2023-07-28T04:16:39.157Z,100145.53
2023-07-28T04:19:07.154Z,100155.41
2023-07-28T04:21:35.173Z,100152.50
2023-07-28T04:24:03.245Z,100150.94
2023-07-28T04:26:31.204Z,100145.31
2023-07-28T04:28:59.225Z,100144.56
2023-07-28T04:31:28.338Z,100149.78
2023-07-28T04:33:57.655Z,100135.53
2023-07-28T04:36:25.720Z,100145.19
2023-07-28T04:38:53.728Z,100144.03
2023-07-28T04:41:22.201Z,100143.09
2023-07-28T04:43:50.235Z,100146.44
2023-07-28T04:46:18.217Z,100135.97
2023-07-28T04:48:46.220Z,100130.53
2023-07-28T04:51:15.634Z,100125.75
2023-07-28T04:53:44.074Z,100117.44
2023-07-28T04:56:11.979Z,100110.69
2023-07-28T04:58:39.950Z,100106.16
2023-07-28T05:01:10.277Z,100113.41
2023-07-28T05:03:38.498Z,100114.19
2023-07-28T05:06:06.537Z,100118.53
2023-07-28T05:08:35.832Z,100125.34
2023-07-28T05:11:04.062Z,100130.84
2023-07-28T05:13:32.032Z,100132.75
2023-07-28T05:16:00.979Z,100132.41
2023-07-28T05:18:28.972Z,100122.78
2023-07-28T05:20:56.906Z,100130.06
2023-07-28T05:23:24.903Z,100122.31
2023-07-28T05:25:54.247Z,100114.03
2023-07-28T05:28:22.293Z,100110.41
2023-07-28T05:30:50.262Z,100111.53
2023-07-28T05:33:18.332Z,100124.50
2023-07-28T05:35:46.248Z,100130.13
2023-07-28T05:38:14.224Z,100134.03
2023-07-28T05:40:42.205Z,100130.69
2023-07-28T05:43:11.493Z,100134.94
2023-07-28T05:45:39.589Z,100134.94
2023-07-28T05:48:07.911Z,100132.25
2023-07-28T05:50:40.211Z,100144.28
2023-07-28T05:53:08.649Z,100153.59
2023-07-28T05:55:36.595Z,100169.00
2023-07-28T05:58:04.580Z,100164.47
2023-07-28T06:00:34.054Z,100164.91
2023-07-28T06:03:02.253Z,100159.66
2023-07-28T06:05:30.263Z,100168.88
2023-07-28T06:07:58.143Z,100164.03
2023-07-28T06:10:26.103Z,100164.69
2023-07-28T06:12:54.100Z,100169.97
2023-07-28T06:15:22.038Z,100158.22
2023-07-28T06:17:51.454Z,100167.91
2023-07-28T06:20:19.404Z,100166.72
2023-07-28T06:22:47.354Z,100164.78
2023-07-28T06:25:15.347Z,100159.53
2023-07-28T06:27:43.989Z,100161.94
2023-07-28T06:30:13.114Z,100164.06
2023-07-28T06:32:41.295Z,100155.03
2023-07-28T06:35:11.210Z,100159.72
2023-07-28T06:37:39.388Z,100162.28
2023-07-28T06:40:10.286Z,100163.03
2023-07-28T06:42:38.685Z,100165.63
2023-07-28T06:45:07.585Z,100164.59
2023-07-28T06:47:35.569Z,100151.63
2023-07-28T06:50:03.564Z,100160.78
2023-07-28T06:52:32.975Z,100152.53
2023-07-28T06:55:00.948Z,100154.81
2023-07-28T06:57:28.932Z,100146.63
2023-07-28T06:59:56.900Z,100143.78
2023-07-28T07:02:24.982Z,100133.19
2023-07-28T07:04:53.111Z,100123.09
2023-07-28T07:07:21.143Z,100124.63
2023-07-28T07:09:50.556Z,100135.50
2023-07-28T07:12:18.460Z,100127.63
2023-07-28T07:14:46.382Z,100138.19
2023-07-28T07:17:14.344Z,100130.34
2023-07-28T07:19:42.402Z,100133.50
2023-07-28T07:22:10.457Z,100128.53
2023-07-28T07:24:38.408Z,100127.44
2023-07-28T07:27:11.972Z,100121.84
2023-07-28T07:29:40.137Z,100120.16
2023-07-28T07:32:09.246Z,100108.13
2023-07-28T07:34:38.232Z,100117.00
2023-07-28T07:37:06.860Z,100114.13
2023-07-28T07:39:35.107Z,100113.94
2023-07-28T07:42:03.113Z,100105.63
2023-07-28T07:44:32.406Z,100103.03
2023-07-28T07:47:02.922Z,100103.94
2023-07-28T07:49:30.957Z,100107.81
2023-07-28T07:51:58.977Z,100103.78
2023-07-28T07:54:26.982Z,100102.28
2023-07-28T07:56:55.131Z,100103.78
2023-07-28T07:59:23.226Z,100096.53
2023-07-28T08:01:52.542Z,100092.34
2023-07-28T08:04:20.588Z,100101.25
2023-07-28T08:06:48.973Z,100098.59
2023-07-28T08:09:16.992Z,100102.72
2023-07-28T08:11:45.096Z,100097.69
2023-07-28T08:14:13.158Z,100098.41
2023-07-28T08:16:41.132Z,100112.03
2023-07-28T08:19:10.834Z,100100.09
2023-07-28T08:21:39.029Z,100105.69
2023-07-28T08:24:07.504Z,100097.63
2023-07-28T08:26:35.551Z,100093.69
2023-07-28T08:29:03.584Z,100101.50
2023-07-28T08:31:31.568Z,100116.34
2023-07-28T08:33:59.587Z,100110.13
2023-07-28T08:36:28.985Z,100105.09
2023-07-28T08:38:57.060Z,100101.91
2023-07-28T08:41:24.954Z,100102.69
2023-07-28T08:43:53.193Z,100097.84
2023-07-28T08:46:22.364Z,100095.13
2023-07-28T08:48:50.495Z,100079.13
2023-07-28T08:51:18.509Z,100076.63
2023-07-28T08:53:47.802Z,100078.16
2023-07-28T08:56:15.784Z,100088.97
2023-07-28T08:58:43.791Z,100070.63
2023-07-28T09:01:13.400Z,100073.31
2023-07-28T09:03:42.384Z,100072.84
2023-07-28T09:06:10.600Z,100066.28
2023-07-28T09:08:38.942Z,100058.69
2023-07-28T09:11:08.544Z,100056.41
2023-07-28T09:13:38.970Z,100051.16
2023-07-28T09:16:07.064Z,100053.88
2023-07-28T09:18:35.151Z,100051.81
2023-07-28T09:21:03.122Z,100048.00
2023-07-28T09:23:32.095Z,100056.50
2023-07-28T09:26:06.275Z,100055.03
2023-07-28T09:28:41.307Z,100054.53
2023-07-28T09:31:11.293Z,100048.91
2023-07-28T09:33:43.840Z,100057.19
2023-07-28T09:36:12.990Z,100061.81
2023-07-28T09:38:42.812Z,100040.72
2023-07-28T09:41:12.633Z,100051.19
2023-07-28T09:43:44.070Z,100056.44
2023-07-28T09:46:12.916Z,100052.00
2023-07-28T09:48:45.360Z,100051.72
2023-07-28T09:51:16.980Z,100052.00
2023-07-28T09:53:48.893Z,100051.25
2023-07-28T09:56:18.294Z,100029.34
2023-07-28T09:58:52.760Z,100032.63
2023-07-28T10:01:23.065Z,100034.03
2023-07-28T10:03:51.412Z,100030.16
2023-07-28T10:06:20.143Z,100025.19
2023-07-28T10:08:48.551Z,100030.25
2023-07-28T10:11:17.321Z,100026.78
2023-07-28T10:13:47.577Z,100027.78
2023-07-28T10:16:18.581Z,100024.63
2023-07-28T10:18:55.185Z,100027.59
2023-07-28T10:21:23.468Z,100022.22
2023-07-28T10:23:57.106Z,100031.72
2023-07-28T10:26:38.444Z,100024.84
2023-07-28T10:29:11.486Z,100022.91
2023-07-28T10:31:51.984Z,100024.44
2023-07-28T10:34:20.124Z,100025.94
2023-07-28T10:36:48.635Z,100019.31
2023-07-28T10:39:19.209Z,100026.38
2023-07-28T10:42:03.242Z,100031.69
2023-07-28T10:44:31.724Z,100031.03
2023-07-28T10:47:01.220Z,100033.75
2023-07-28T10:49:29.354Z,100026.09
2023-07-28T10:51:57.472Z,100034.34
2023-07-28T10:54:26.292Z,100028.22
2023-07-28T10:56:54.309Z,100027.78
2023-07-28T10:59:22.280Z,100020.59
2023-07-28T11:01:50.422Z,100021.16
2023-07-28T11:04:21.199Z,100004.41
2023-07-28T11:06:50.759Z,100019.97
2023-07-28T11:09:20.145Z,100020.88
2023-07-28T11:11:48.672Z,100016.16
2023-07-28T11:14:18.757Z,100012.38
2023-07-28T11:16:49.322Z,100017.63
2023-07-28T11:19:25.933Z,100026.38
2023-07-28T11:21:54.525Z,100015.28
2023-07-28T11:24:23.615Z,100019.03
2023-07-28T11:26:52.312Z,100028.78
2023-07-28T11:29:21.088Z,100017.13
2023-07-28T11:31:50.185Z,100026.53
2023-07-28T11:34:20.312Z,100013.13
2023-07-28T11:36:48.335Z,100016.13
2023-07-28T11:39:17.532Z,100006.47
2023-07-28T11:41:47.082Z,100019.19
2023-07-28T11:44:15.331Z,100015.25
2023-07-28T11:46:45.132Z,100014.50
2023-07-28T11:49:16.441Z,100003.81
2023-07-28T11:51:46.889Z,100010.09
2023-07-28T11:54:16.509Z,100009.88
2023-07-28T11:56:45.004Z,100008.91
2023-07-28T11:59:13.724Z,100000.41
2023-07-28T12:07:10.199Z,99994.31
2023-07-28T12:12:27.365Z,100000.06
2023-07-28T12:18:52.746Z,99984.69
2023-07-28T12:20:18.198Z,99982.69
2023-07-28T12:22:48.581Z,99972.25
2023-07-28T12:25:17.435Z,99983.44
2023-07-28T12:27:45.447Z,99974.00
2023-07-28T12:30:17.293Z,99968.00
2023-07-28T12:35:16.932Z,99962.28
2023-07-28T12:45:22.993Z,99954.63
2023-07-28T12:47:58.926Z,99951.19
2023-07-28T12:50:27.390Z,99960.63
2023-07-28T12:55:28.537Z,99958.19
2023-07-28T12:57:56.646Z,99956.97
2023-07-28T13:02:55.513Z,99964.16
2023-07-28T13:05:23.569Z,99963.91
2023-07-28T13:12:57.085Z,99963.97
2023-07-28T13:15:25.592Z,99961.47
2023-07-28T13:17:53.700Z,99955.00
2023-07-28T13:20:22.178Z,99961.22
2023-07-28T13:22:50.164Z,99957.22
2023-07-28T13:25:18.519Z,99962.94
2023-07-28T13:27:46.572Z,99961.19
2023-07-28T13:30:16.135Z,99950.69
2023-07-28T13:32:44.220Z,99953.72
2023-07-28T13:35:13.354Z,99959.63
2023-07-28T13:37:41.314Z,99965.88
2023-07-28T13:40:12.217Z,99958.41
2023-07-28T13:42:41.497Z,99959.88
2023-07-28T13:45:11.338Z,99958.34
2023-07-28T13:47:40.686Z,99959.31
2023-07-28T13:50:09.379Z,99958.28
2023-07-28T13:52:37.726Z,99960.50
2023-07-28T13:57:37.562Z,99955.75
2023-07-28T14:00:10.076Z,99954.53
2023-07-28T14:02:41.988Z,99957.25
2023-07-28T14:05:10.966Z,99956.50
2023-07-28T14:07:38.958Z,99955.22
2023-07-28T14:10:08.067Z,99962.19
2023-07-28T14:12:36.238Z,99946.31
2023-07-28T14:15:04.639Z,99951.00
2023-07-28T14:17:32.552Z,99953.72
2023-07-28T14:20:02.136Z,99947.53
2023-07-28T14:22:30.188Z,99951.75
2023-07-28T14:24:58.219Z,99945.78
2023-07-28T14:27:26.162Z,99943.03
2023-07-28T14:29:54.128Z,99931.84
2023-07-28T14:32:22.176Z,99932.59
2023-07-28T14:34:50.103Z,99925.88
2023-07-28T14:37:19.412Z,99921.09
2023-07-28T14:39:47.354Z,99920.56
2023-07-28T14:42:15.220Z,99914.09
2023-07-28T14:44:43.202Z,99921.28
2023-07-28T14:47:11.157Z,99914.31
2023-07-28T14:49:39.156Z,99911.03
2023-07-28T14:52:07.959Z,99904.41
2023-07-28T14:54:37.376Z,99898.66
2023-07-28T14:57:10.087Z,99898.38
2023-07-28T14:59:42.520Z,99896.13
2023-07-28T15:02:12.898Z,99887.91
2023-07-28T15:04:40.854Z,99896.66
2023-07-28T15:07:09.182Z,99887.91
2023-07-28T15:09:38.479Z,99882.94
2023-07-28T15:12:07.433Z,99884.19
2023-07-28T15:14:35.349Z,99880.91
2023-07-28T15:17:03.387Z,99876.97
2023-07-28T15:19:31.482Z,99877.16
2023-07-28T15:21:59.654Z,99881.34
2023-07-28T15:24:27.718Z,99880.81
2023-07-28T15:26:57.055Z,99886.28
2023-07-28T15:29:25.046Z,99883.78
2023-07-28T15:31:54.958Z,99886.03
2023-07-28T15:34:23.508Z,99881.53
2023-07-28T15:36:51.481Z,99887.97
2023-07-28T15:39:19.506Z,99896.16
2023-07-28T15:41:47.484Z,99889.22
2023-07-28T15:44:16.774Z,99894.19
2023-07-28T15:46:44.816Z,99891.19
2023-07-28T15:49:13.034Z,99909.31
2023-07-28T15:51:41.052Z,99904.78
2023-07-28T15:54:09.362Z,99892.63
2023-07-28T15:56:37.339Z,99910.03
2023-07-28T15:59:05.401Z,99905.31
2023-07-28T16:01:35.124Z,99916.72
2023-07-28T16:04:03.717Z,99914.72
2023-07-28T16:06:31.842Z,99912.75
2023-07-28T16:09:15.796Z,99920.47
2023-07-28T16:11:44.979Z,99929.41
2023-07-28T16:14:14.251Z,99937.66
2023-07-28T16:16:43.622Z,99946.06
2023-07-28T16:19:11.615Z,99959.47
2023-07-28T16:21:39.521Z,99976.09
2023-07-28T16:24:09.175Z,100036.50
2023-07-28T16:26:37.406Z,100068.91
2023-07-28T16:29:05.383Z,100066.84
2023-07-28T16:31:34.515Z,100067.50
2023-07-28T16:34:05.198Z,100078.50
2023-07-28T16:36:33.273Z,100075.53
2023-07-28T16:39:01.897Z,100055.50
2023-07-28T16:41:30.143Z,100040.75
2023-07-28T16:43:58.240Z,100032.25
2023-07-28T16:46:26.576Z,100049.22
2023-07-28T16:48:54.756Z,100048.34
2023-07-28T16:51:24.091Z,100043.13
2023-07-28T16:53:52.511Z,100043.19
2023-07-28T16:56:20.737Z,100049.66
2023-07-28T16:58:48.817Z,100046.69
2023-07-28T17:01:17.496Z,100050.44
2023-07-28T17:03:45.591Z,100046.13
2023-07-28T17:06:13.997Z,100048.28
2023-07-28T17:08:44.471Z,100042.22
2023-07-28T17:11:12.585Z,100041.16
2023-07-28T17:13:40.533Z,100047.66
2023-07-28T17:16:08.725Z,100044.56
2023-07-28T17:18:36.784Z,100038.44
2023-07-28T17:21:05.165Z,100053.31
2023-07-28T17:23:33.658Z,100059.31
2023-07-28T17:26:03.431Z,100060.63
2023-07-28T17:28:31.703Z,100052.91
2023-07-28T17:31:00.329Z,100058.94
2023-07-28T17:33:28.653Z,100065.91
2023-07-28T17:35:57.162Z,100040.66
2023-07-28T17:38:25.172Z,100046.41
2023-07-28T17:40:53.490Z,100041.97
2023-07-28T17:43:22.973Z,100036.97
2023-07-28T17:45:51.725Z,100048.44
2023-07-28T17:48:20.809Z,100032.34
2023-07-28T17:50:49.053Z,100029.91
2023-07-28T17:53:17.240Z,100030.47
2023-07-28T17:55:45.611Z,100035.16
2023-07-28T17:58:13.703Z,100031.19
2023-07-28T18:00:43.739Z,100026.22
2023-07-28T18:03:13.011Z,100035.91
2023-07-28T18:05:41.756Z,100028.47
2023-07-28T18:08:13.117Z,100036.66
2023-07-28T18:10:42.458Z,100028.00
2023-07-28T18:13:11.846Z,100021.28
2023-07-28T18:15:40.939Z,100028.25
2023-07-28T18:18:10.447Z,100022.06
2023-07-28T18:20:39.598Z,100021.56
2023-07-28T18:23:08.414Z,100014.63
2023-07-28T18:25:37.345Z,100007.91
2023-07-28T18:28:06.654Z,100006.69
2023-07-28T18:30:35.993Z,100005.47
2023-07-28T18:33:05.150Z,99997.28
2023-07-28T18:35:35.839Z,99994.25
2023-07-28T18:38:05.563Z,99987.13
2023-07-28T18:40:34.489Z,99994.91
2023-07-28T18:43:04.776Z,100003.22
2023-07-28T18:45:33.026Z,100027.22
2023-07-28T18:48:02.273Z,100021.84
2023-07-28T18:50:30.901Z,100025.09
2023-07-28T18:53:00.757Z,100024.19
2023-07-28T18:55:29.260Z,100021.09
2023-07-28T18:57:57.740Z,100026.22
2023-07-28T19:00:27.915Z,100039.59
2023-07-28T19:02:56.914Z,100040.44
2023-07-28T19:05:26.407Z,100046.38
2023-07-28T19:07:54.497Z,100045.06
2023-07-28T19:10:24.576Z,100041.81
2023-07-28T19:12:53.265Z,100039.44
2023-07-28T19:15:40.810Z,100048.16
2023-07-28T19:18:10.229Z,100041.44
2023-07-28T19:20:38.335Z,100045.28
2023-07-28T19:23:08.557Z,100045.28
2023-07-28T19:25:38.504Z,100047.19
2023-07-28T19:28:07.684Z,100042.53
2023-07-28T19:30:36.645Z,100062.00
2023-07-28T19:33:05.853Z,100061.97
2023-07-28T19:35:36.077Z,100059.94
2023-07-28T19:38:04.805Z,100067.47
2023-07-28T19:40:34.126Z,100057.97
2023-07-28T19:43:04.020Z,100066.41
2023-07-28T19:45:33.187Z,100062.78
2023-07-28T19:48:02.930Z,100069.66
2023-07-28T19:50:45.351Z,100063.63
2023-07-28T19:53:16.384Z,100063.50
2023-07-28T19:55:47.006Z,100058.31
2023-07-28T19:58:17.816Z,100069.94
2023-07-28T20:00:46.818Z,100065.44
2023-07-28T20:03:16.290Z,100062.72
2023-07-28T20:05:45.590Z,100071.38
2023-07-28T20:08:14.380Z,100075.31
2023-07-28T20:10:43.281Z,100076.09
2023-07-28T20:13:11.271Z,100086.72
2023-07-28T20:15:41.366Z,100079.25
2023-07-28T20:18:11.251Z,100083.06
2023-07-28T20:20:39.247Z,100077.59
2023-07-28T20:23:08.564Z,100083.34
2023-07-28T20:25:38.017Z,100079.09
2023-07-28T20:28:07.823Z,100081.81
2023-07-28T20:30:37.623Z,100084.09
2023-07-28T20:33:07.915Z,100078.91
2023-07-28T20:35:36.031Z,100086.63
2023-07-28T20:38:07.018Z,100087.81
2023-07-28T20:40:36.986Z,100087.94
2023-07-28T20:43:05.042Z,100077.47
2023-07-28T20:45:33.764Z,100081.94
2023-07-28T20:48:02.703Z,100077.00
2023-07-28T20:50:32.768Z,100085.94
2023-07-28T20:53:01.826Z,100084.16
2023-07-28T20:55:30.810Z,100075.97
2023-07-28T20:58:02.465Z,100082.66
2023-07-28T21:00:30.725Z,100081.16
2023-07-28T21:03:00.481Z,100093.09
2023-07-28T21:05:28.547Z,100083.22
2023-07-28T21:07:57.864Z,100088.69
2023-07-28T21:10:27.283Z,100092.34
2023-07-28T21:12:55.265Z,100095.06
2023-07-28T21:15:24.061Z,100105.41
2023-07-28T21:17:52.136Z,100099.44
2023-07-28T21:20:20.241Z,100104.91
2023-07-28T21:22:48.252Z,100101.41
2023-07-28T21:25:17.810Z,100103.94
2023-07-28T21:27:45.823Z,100101.19
2023-07-28T21:30:14.008Z,100107.91
2023-07-28T21:32:41.996Z,100106.84
2023-07-28T21:35:10.367Z,100109.13
2023-07-28T21:37:38.399Z,100115.31
2023-07-28T21:40:08.308Z,100112.59
2023-07-28T21:42:37.765Z,100113.91
2023-07-28T21:45:06.891Z,100124.53
2023-07-28T21:47:34.912Z,100117.84
2023-07-28T21:50:03.162Z,100123.03
2023-07-28T21:52:31.107Z,100118.81
2023-07-28T21:54:59.284Z,100112.22
2023-07-28T21:57:27.429Z,100126.34
2023-07-28T21:59:56.667Z,100121.78
2023-07-28T22:02:24.922Z,100123.03
2023-07-28T22:04:52.911Z,100121.53
2023-07-28T22:07:20.923Z,100119.25
2023-07-28T22:09:48.953Z,100123.22
2023-07-28T22:12:17.205Z,100115.50
2023-07-28T22:14:45.120Z,100106.84
2023-07-28T22:17:14.447Z,100106.13
2023-07-28T22:19:42.443Z,100107.31
2023-07-28T22:22:10.721Z,100098.66
2023-07-28T22:24:39.148Z,100104.13
2023-07-28T22:27:07.884Z,100100.66
2023-07-28T22:29:35.847Z,100100.25
2023-07-28T22:32:03.956Z,100108.91
2023-07-28T22:34:33.343Z,100104.78
2023-07-28T22:37:01.295Z,100112.13
2023-07-28T22:39:29.418Z,100096.78
2023-07-28T22:41:57.581Z,100106.38
2023-07-28T22:44:25.659Z,100111.06
2023-07-28T22:46:53.689Z,100118.25
2023-07-28T22:49:21.592Z,100114.94
2023-07-28T22:51:50.841Z,100123.13
2023-07-28T22:54:18.779Z,100124.34
2023-07-28T22:56:46.748Z,100132.25
2023-07-28T22:59:14.768Z,100133.75
2023-07-28T23:01:42.865Z,100122.56
2023-07-28T23:04:10.799Z,100130.75
2023-07-28T23:06:38.983Z,100128.19
2023-07-28T23:09:09.617Z,100133.47
2023-07-28T23:11:37.596Z,100125.03
2023-07-28T23:14:05.486Z,100119.25
2023-07-28T23:16:33.473Z,100126.16
2023-07-28T23:19:01.460Z,100127.84
2023-07-28T23:21:29.390Z,100124.84
2023-07-28T23:23:57.463Z,100115.50
2023-07-28T23:26:26.874Z,100124.06
2023-07-28T23:28:54.824Z,100122.72
2023-07-28T23:31:24.464Z,100120.00
2023-07-28T23:33:52.433Z,100112.75
2023-07-28T23:36:20.633Z,100120.50
2023-07-28T23:38:48.676Z,100116.06
2023-07-28T23:41:17.692Z,100108.00
2023-07-28T23:43:47.106Z,100117.06
2023-07-28T23:46:15.227Z,100120.56
2023-07-28T23:48:43.222Z,100113.88
2023-07-28T23:51:11.208Z,100108.44
2023-07-28T23:53:39.189Z,100111.34
2023-07-28T23:56:07.241Z,100109.00
2023-07-28T23:58:35.201Z,100111.81
